sensor_id;sensor_type;location;lat;lon;timestamp;P1;durP1;ratioP1;P2;durP2;ratioP2
70997;SDS011;58663;52.040;4.634;2022-07-03T00:01:52;6.45;;;2.30;;
70997;SDS011;58663;52.040;4.634;2022-07-03T00:04:17;6.07;;;2.83;;
70997;SDS011;58663;52.040;4.634;2022-07-03T00:06:45;4.72;;;2.30;;
70997;SDS011;58663;52.040;4.634;2022-07-03T00:09:11;4.50;;;3.05;;
70997;SDS011;58663;52.040;4.634;2022-07-03T00:11:37;3.88;;;2.47;;
70997;SDS011;58663;52.040;4.634;2022-07-03T00:14:02;3.13;;;2.63;;
70997;SDS011;58663;52.040;4.634;2022-07-03T00:16:28;2.92;;;2.53;;
70997;SDS011;58663;52.040;4.634;2022-07-03T00:18:53;3.33;;;2.38;;
70997;SDS011;58663;52.040;4.634;2022-07-03T00:21:44;3.42;;;2.80;;
70997;SDS011;58663;52.040;4.634;2022-07-03T00:24:24;4.63;;;2.85;;
70997;SDS011;58663;52.040;4.634;2022-07-03T00:26:52;5.70;;;2.67;;
70997;SDS011;58663;52.040;4.634;2022-07-03T00:29:20;6.13;;;2.92;;
70997;SDS011;58663;52.040;4.634;2022-07-03T00:31:47;4.30;;;3.22;;
70997;SDS011;58663;52.040;4.634;2022-07-03T00:34:13;3.92;;;2.55;;
70997;SDS011;58663;52.040;4.634;2022-07-03T00:36:40;3.25;;;2.55;;
70997;SDS011;58663;52.040;4.634;2022-07-03T00:39:07;3.25;;;2.00;;
70997;SDS011;58663;52.040;4.634;2022-07-03T00:41:34;3.15;;;2.25;;
70997;SDS011;58663;52.040;4.634;2022-07-03T00:44:00;2.67;;;1.80;;
70997;SDS011;58663;52.040;4.634;2022-07-03T00:46:27;2.75;;;1.95;;
70997;SDS011;58663;52.040;4.634;2022-07-03T00:48:53;1.75;;;1.65;;
70997;SDS011;58663;52.040;4.634;2022-07-03T00:51:25;2.90;;;1.80;;
70997;SDS011;58663;52.040;4.634;2022-07-03T00:53:52;2.50;;;1.65;;
70997;SDS011;58663;52.040;4.634;2022-07-03T00:56:19;6.45;;;2.33;;
70997;SDS011;58663;52.040;4.634;2022-07-03T00:58:49;1.50;;;1.40;;
70997;SDS011;58663;52.040;4.634;2022-07-03T01:01:16;1.98;;;1.65;;
70997;SDS011;58663;52.040;4.634;2022-07-03T01:03:44;2.30;;;1.60;;
70997;SDS011;58663;52.040;4.634;2022-07-03T01:06:11;1.90;;;1.70;;
70997;SDS011;58663;52.040;4.634;2022-07-03T01:08:42;4.15;;;1.85;;
70997;SDS011;58663;52.040;4.634;2022-07-03T01:27:04;1.83;;;1.20;;
70997;SDS011;58663;52.040;4.634;2022-07-03T01:29:38;2.45;;;1.20;;
70997;SDS011;58663;52.040;4.634;2022-07-03T01:32:33;7.05;;;1.30;;
70997;SDS011;58663;52.040;4.634;2022-07-03T01:35:13;1.83;;;1.00;;
70997;SDS011;58663;52.040;4.634;2022-07-03T01:37:46;2.10;;;0.95;;
70997;SDS011;58663;52.040;4.634;2022-07-03T01:40:11;2.92;;;0.93;;
70997;SDS011;58663;52.040;4.634;2022-07-03T01:42:37;1.48;;;1.25;;
70997;SDS011;58663;52.040;4.634;2022-07-03T01:45:08;1.23;;;1.10;;
70997;SDS011;58663;52.040;4.634;2022-07-03T01:47:34;2.20;;;1.17;;
70997;SDS011;58663;52.040;4.634;2022-07-03T01:49:59;3.00;;;1.00;;
70997;SDS011;58663;52.040;4.634;2022-07-03T01:52:25;1.63;;;0.82;;
70997;SDS011;58663;52.040;4.634;2022-07-03T01:54:51;1.35;;;0.80;;
70997;SDS011;58663;52.040;4.634;2022-07-03T01:57:17;1.48;;;0.88;;
70997;SDS011;58663;52.040;4.634;2022-07-03T01:59:43;0.90;;;0.80;;
70997;SDS011;58663;52.040;4.634;2022-07-03T02:04:45;3.00;;;0.90;;
70997;SDS011;58663;52.040;4.634;2022-07-03T02:10:09;4.03;;;1.27;;
70997;SDS011;58663;52.040;4.634;2022-07-03T02:12:39;1.60;;;0.80;;
70997;SDS011;58663;52.040;4.634;2022-07-03T02:15:09;1.35;;;0.77;;
70997;SDS011;58663;52.040;4.634;2022-07-03T02:17:42;1.20;;;0.70;;
70997;SDS011;58663;52.040;4.634;2022-07-03T02:20:09;2.90;;;1.08;;
70997;SDS011;58663;52.040;4.634;2022-07-03T02:22:45;0.82;;;0.70;;
70997;SDS011;58663;52.040;4.634;2022-07-03T02:25:19;3.60;;;1.05;;
70997;SDS011;58663;52.040;4.634;2022-07-03T02:27:56;2.10;;;0.80;;
70997;SDS011;58663;52.040;4.634;2022-07-03T02:30:23;2.30;;;0.93;;
70997;SDS011;58663;52.040;4.634;2022-07-03T02:32:49;1.00;;;0.80;;
70997;SDS011;58663;52.040;4.634;2022-07-03T02:35:26;2.53;;;0.80;;
70997;SDS011;58663;52.040;4.634;2022-07-03T02:43:30;2.22;;;0.95;;
70997;SDS011;58663;52.040;4.634;2022-07-03T02:46:17;2.53;;;0.90;;
70997;SDS011;58663;52.040;4.634;2022-07-03T02:54:48;2.78;;;0.75;;
70997;SDS011;58663;52.040;4.634;2022-07-03T02:57:17;2.13;;;0.70;;
70997;SDS011;58663;52.040;4.634;2022-07-03T03:10:52;2.13;;;1.00;;
70997;SDS011;58663;52.040;4.634;2022-07-03T03:13:27;2.35;;;1.13;;
70997;SDS011;58663;52.040;4.634;2022-07-03T03:16:06;3.80;;;0.95;;
70997;SDS011;58663;52.040;4.634;2022-07-03T03:18:34;3.13;;;1.17;;
70997;SDS011;58663;52.040;4.634;2022-07-03T03:21:05;1.98;;;0.90;;
70997;SDS011;58663;52.040;4.634;2022-07-03T03:23:35;4.70;;;1.33;;
70997;SDS011;58663;52.040;4.634;2022-07-03T03:26:03;1.02;;;0.90;;
70997;SDS011;58663;52.040;4.634;2022-07-03T03:28:28;5.15;;;1.40;;
70997;SDS011;58663;52.040;4.634;2022-07-03T03:30:54;6.28;;;1.00;;
70997;SDS011;58663;52.040;4.634;2022-07-03T03:33:20;1.92;;;1.40;;
70997;SDS011;58663;52.040;4.634;2022-07-03T03:35:46;2.88;;;0.80;;
70997;SDS011;58663;52.040;4.634;2022-07-03T03:38:11;4.03;;;1.10;;
70997;SDS011;58663;52.040;4.634;2022-07-03T03:40:36;2.70;;;1.00;;
70997;SDS011;58663;52.040;4.634;2022-07-03T03:43:02;4.18;;;1.45;;
70997;SDS011;58663;52.040;4.634;2022-07-03T03:45:27;1.48;;;0.85;;
70997;SDS011;58663;52.040;4.634;2022-07-03T03:47:53;2.55;;;1.05;;
70997;SDS011;58663;52.040;4.634;2022-07-03T03:50:19;2.72;;;1.35;;
70997;SDS011;58663;52.040;4.634;2022-07-03T03:52:44;4.03;;;1.10;;
70997;SDS011;58663;52.040;4.634;2022-07-03T03:55:09;3.42;;;0.88;;
70997;SDS011;58663;52.040;4.634;2022-07-03T03:57:35;4.38;;;1.23;;
70997;SDS011;58663;52.040;4.634;2022-07-03T04:00:01;6.50;;;1.50;;
70997;SDS011;58663;52.040;4.634;2022-07-03T04:02:27;2.22;;;1.05;;
70997;SDS011;58663;52.040;4.634;2022-07-03T04:04:53;1.83;;;1.00;;
70997;SDS011;58663;52.040;4.634;2022-07-03T04:07:18;1.75;;;1.05;;
70997;SDS011;58663;52.040;4.634;2022-07-03T04:09:43;3.88;;;1.00;;
70997;SDS011;58663;52.040;4.634;2022-07-03T04:12:09;2.28;;;1.00;;
70997;SDS011;58663;52.040;4.634;2022-07-03T04:14:35;8.40;;;1.60;;
70997;SDS011;58663;52.040;4.634;2022-07-03T04:17:01;3.80;;;1.10;;
70997;SDS011;58663;52.040;4.634;2022-07-03T04:19:26;3.78;;;1.05;;
70997;SDS011;58663;52.040;4.634;2022-07-03T04:21:52;6.32;;;1.10;;
70997;SDS011;58663;52.040;4.634;2022-07-03T04:24:17;3.58;;;1.02;;
70997;SDS011;58663;52.040;4.634;2022-07-03T04:26:43;3.60;;;0.90;;
70997;SDS011;58663;52.040;4.634;2022-07-03T04:29:08;4.38;;;1.33;;
70997;SDS011;58663;52.040;4.634;2022-07-03T04:31:34;4.82;;;1.33;;
70997;SDS011;58663;52.040;4.634;2022-07-03T04:33:59;2.63;;;1.23;;
70997;SDS011;58663;52.040;4.634;2022-07-03T04:36:24;5.45;;;1.35;;
70997;SDS011;58663;52.040;4.634;2022-07-03T04:38:50;3.65;;;1.38;;
70997;SDS011;58663;52.040;4.634;2022-07-03T04:41:15;3.28;;;1.20;;
70997;SDS011;58663;52.040;4.634;2022-07-03T04:43:41;2.97;;;1.27;;
70997;SDS011;58663;52.040;4.634;2022-07-03T04:46:06;3.85;;;1.50;;
70997;SDS011;58663;52.040;4.634;2022-07-03T04:48:31;3.85;;;1.40;;
70997;SDS011;58663;52.040;4.634;2022-07-03T04:50:57;2.75;;;1.55;;
70997;SDS011;58663;52.040;4.634;2022-07-03T04:53:23;4.63;;;1.42;;
70997;SDS011;58663;52.040;4.634;2022-07-03T04:55:49;6.80;;;1.45;;
70997;SDS011;58663;52.040;4.634;2022-07-03T04:58:14;5.75;;;1.33;;
70997;SDS011;58663;52.040;4.634;2022-07-03T05:00:39;3.15;;;1.40;;
70997;SDS011;58663;52.040;4.634;2022-07-03T05:03:07;2.15;;;1.40;;
70997;SDS011;58663;52.040;4.634;2022-07-03T05:05:33;6.85;;;1.48;;
70997;SDS011;58663;52.040;4.634;2022-07-03T05:07:58;3.85;;;1.83;;
70997;SDS011;58663;52.040;4.634;2022-07-03T05:10:25;4.30;;;1.25;;
70997;SDS011;58663;52.040;4.634;2022-07-03T05:12:51;6.82;;;1.52;;
70997;SDS011;58663;52.040;4.634;2022-07-03T05:15:16;5.40;;;1.60;;
70997;SDS011;58663;52.040;4.634;2022-07-03T05:17:41;3.50;;;1.30;;
70997;SDS011;58663;52.040;4.634;2022-07-03T05:20:07;4.72;;;1.30;;
70997;SDS011;58663;52.040;4.634;2022-07-03T05:22:52;2.90;;;1.60;;
70997;SDS011;58663;52.040;4.634;2022-07-03T05:25:18;4.72;;;1.48;;
70997;SDS011;58663;52.040;4.634;2022-07-03T05:27:44;6.72;;;1.40;;
70997;SDS011;58663;52.040;4.634;2022-07-03T05:30:09;4.28;;;1.35;;
70997;SDS011;58663;52.040;4.634;2022-07-03T05:32:35;8.65;;;1.92;;
70997;SDS011;58663;52.040;4.634;2022-07-03T05:35:01;3.80;;;1.90;;
70997;SDS011;58663;52.040;4.634;2022-07-03T05:37:26;3.13;;;1.30;;
70997;SDS011;58663;52.040;4.634;2022-07-03T05:39:52;7.50;;;1.60;;
70997;SDS011;58663;52.040;4.634;2022-07-03T05:42:17;5.95;;;2.00;;
70997;SDS011;58663;52.040;4.634;2022-07-03T05:44:42;8.52;;;1.80;;
70997;SDS011;58663;52.040;4.634;2022-07-03T05:47:08;4.05;;;1.40;;
70997;SDS011;58663;52.040;4.634;2022-07-03T05:49:33;3.78;;;1.60;;
70997;SDS011;58663;52.040;4.634;2022-07-03T05:51:59;6.68;;;1.90;;
70997;SDS011;58663;52.040;4.634;2022-07-03T05:54:24;6.90;;;1.67;;
70997;SDS011;58663;52.040;4.634;2022-07-03T05:56:50;6.35;;;2.00;;
70997;SDS011;58663;52.040;4.634;2022-07-03T05:59:15;4.07;;;1.92;;
70997;SDS011;58663;52.040;4.634;2022-07-03T06:01:40;11.02;;;1.80;;
70997;SDS011;58663;52.040;4.634;2022-07-03T06:04:06;6.38;;;1.83;;
70997;SDS011;58663;52.040;4.634;2022-07-03T06:06:31;6.50;;;1.83;;
70997;SDS011;58663;52.040;4.634;2022-07-03T06:08:56;5.22;;;2.03;;
70997;SDS011;58663;52.040;4.634;2022-07-03T06:11:22;5.45;;;1.85;;
70997;SDS011;58663;52.040;4.634;2022-07-03T06:13:47;3.50;;;1.60;;
70997;SDS011;58663;52.040;4.634;2022-07-03T06:16:13;4.22;;;1.60;;
70997;SDS011;58663;52.040;4.634;2022-07-03T06:18:38;4.25;;;1.40;;
70997;SDS011;58663;52.040;4.634;2022-07-03T06:21:03;5.47;;;1.55;;
70997;SDS011;58663;52.040;4.634;2022-07-03T06:23:29;4.57;;;1.20;;
70997;SDS011;58663;52.040;4.634;2022-07-03T06:25:54;3.75;;;1.23;;
70997;SDS011;58663;52.040;4.634;2022-07-03T06:28:20;1.95;;;1.25;;
70997;SDS011;58663;52.040;4.634;2022-07-03T06:30:45;8.68;;;1.40;;
70997;SDS011;58663;52.040;4.634;2022-07-03T06:33:10;4.13;;;1.58;;
70997;SDS011;58663;52.040;4.634;2022-07-03T06:35:36;4.97;;;1.33;;
70997;SDS011;58663;52.040;4.634;2022-07-03T06:38:02;3.42;;;1.25;;
70997;SDS011;58663;52.040;4.634;2022-07-03T06:40:28;3.78;;;1.33;;
70997;SDS011;58663;52.040;4.634;2022-07-03T06:42:53;7.38;;;1.50;;
70997;SDS011;58663;52.040;4.634;2022-07-03T06:45:19;3.20;;;1.52;;
70997;SDS011;58663;52.040;4.634;2022-07-03T06:47:44;7.55;;;1.58;;
70997;SDS011;58663;52.040;4.634;2022-07-03T06:50:09;3.75;;;1.30;;
70997;SDS011;58663;52.040;4.634;2022-07-03T06:52:35;3.67;;;1.60;;
70997;SDS011;58663;52.040;4.634;2022-07-03T06:55:00;2.90;;;1.20;;
70997;SDS011;58663;52.040;4.634;2022-07-03T06:57:28;3.13;;;1.58;;
70997;SDS011;58663;52.040;4.634;2022-07-03T06:59:54;4.57;;;1.60;;
70997;SDS011;58663;52.040;4.634;2022-07-03T07:02:19;3.83;;;1.95;;
70997;SDS011;58663;52.040;4.634;2022-07-03T07:04:44;3.40;;;1.60;;
70997;SDS011;58663;52.040;4.634;2022-07-03T07:07:10;3.42;;;1.75;;
70997;SDS011;58663;52.040;4.634;2022-07-03T07:09:35;7.03;;;1.92;;
70997;SDS011;58663;52.040;4.634;2022-07-03T07:12:01;5.85;;;1.80;;
70997;SDS011;58663;52.040;4.634;2022-07-03T07:14:26;8.15;;;2.30;;
70997;SDS011;58663;52.040;4.634;2022-07-03T07:16:51;6.10;;;2.10;;
70997;SDS011;58663;52.040;4.634;2022-07-03T07:19:17;5.13;;;1.80;;
70997;SDS011;58663;52.040;4.634;2022-07-03T07:21:42;2.25;;;1.63;;
70997;SDS011;58663;52.040;4.634;2022-07-03T07:24:08;5.80;;;2.47;;
70997;SDS011;58663;52.040;4.634;2022-07-03T07:26:33;4.80;;;2.08;;
70997;SDS011;58663;52.040;4.634;2022-07-03T07:28:59;4.78;;;1.25;;
70997;SDS011;58663;52.040;4.634;2022-07-03T07:31:24;8.50;;;1.67;;
70997;SDS011;58663;52.040;4.634;2022-07-03T07:33:50;8.70;;;2.22;;
70997;SDS011;58663;52.040;4.634;2022-07-03T07:36:15;4.03;;;1.98;;
70997;SDS011;58663;52.040;4.634;2022-07-03T07:38:41;6.68;;;1.63;;
70997;SDS011;58663;52.040;4.634;2022-07-03T07:41:06;2.95;;;1.77;;
70997;SDS011;58663;52.040;4.634;2022-07-03T07:43:31;4.45;;;1.80;;
70997;SDS011;58663;52.040;4.634;2022-07-03T07:45:57;5.35;;;1.60;;
70997;SDS011;58663;52.040;4.634;2022-07-03T07:48:22;3.45;;;1.98;;
70997;SDS011;58663;52.040;4.634;2022-07-03T07:50:47;4.10;;;1.73;;
70997;SDS011;58663;52.040;4.634;2022-07-03T07:53:14;2.72;;;1.52;;
70997;SDS011;58663;52.040;4.634;2022-07-03T07:55:40;4.13;;;1.38;;
70997;SDS011;58663;52.040;4.634;2022-07-03T07:58:05;5.15;;;2.00;;
70997;SDS011;58663;52.040;4.634;2022-07-03T08:00:31;2.65;;;1.33;;
70997;SDS011;58663;52.040;4.634;2022-07-03T08:02:56;1.98;;;1.30;;
70997;SDS011;58663;52.040;4.634;2022-07-03T08:05:40;4.43;;;1.83;;
70997;SDS011;58663;52.040;4.634;2022-07-03T08:08:10;4.40;;;1.67;;
70997;SDS011;58663;52.040;4.634;2022-07-03T08:10:38;4.68;;;1.73;;
70997;SDS011;58663;52.040;4.634;2022-07-03T08:13:05;2.20;;;1.40;;
70997;SDS011;58663;52.040;4.634;2022-07-03T08:15:31;3.05;;;1.50;;
70997;SDS011;58663;52.040;4.634;2022-07-03T08:17:57;4.30;;;1.67;;
70997;SDS011;58663;52.040;4.634;2022-07-03T08:20:22;3.78;;;1.80;;
70997;SDS011;58663;52.040;4.634;2022-07-03T08:22:48;5.65;;;1.85;;
70997;SDS011;58663;52.040;4.634;2022-07-03T08:25:13;2.97;;;1.60;;
70997;SDS011;58663;52.040;4.634;2022-07-03T08:27:39;2.33;;;1.50;;
70997;SDS011;58663;52.040;4.634;2022-07-03T08:30:04;2.53;;;1.40;;
70997;SDS011;58663;52.040;4.634;2022-07-03T08:32:30;4.22;;;1.45;;
70997;SDS011;58663;52.040;4.634;2022-07-03T08:34:55;4.93;;;1.73;;
70997;SDS011;58663;52.040;4.634;2022-07-03T08:37:21;2.40;;;1.30;;
70997;SDS011;58663;52.040;4.634;2022-07-03T08:39:46;1.75;;;1.23;;
70997;SDS011;58663;52.040;4.634;2022-07-03T08:42:11;3.30;;;1.40;;
70997;SDS011;58663;52.040;4.634;2022-07-03T08:44:40;2.55;;;1.45;;
70997;SDS011;58663;52.040;4.634;2022-07-03T08:47:07;5.70;;;1.40;;
70997;SDS011;58663;52.040;4.634;2022-07-03T08:49:36;3.58;;;1.50;;
70997;SDS011;58663;52.040;4.634;2022-07-03T08:52:02;5.55;;;1.65;;
70997;SDS011;58663;52.040;4.634;2022-07-03T08:54:28;3.55;;;1.60;;
70997;SDS011;58663;52.040;4.634;2022-07-03T08:56:54;3.30;;;1.55;;
70997;SDS011;58663;52.040;4.634;2022-07-03T08:59:20;1.65;;;1.25;;
70997;SDS011;58663;52.040;4.634;2022-07-03T09:01:46;3.55;;;1.70;;
70997;SDS011;58663;52.040;4.634;2022-07-03T09:04:12;4.53;;;1.10;;
70997;SDS011;58663;52.040;4.634;2022-07-03T09:06:41;3.50;;;1.30;;
70997;SDS011;58663;52.040;4.634;2022-07-03T09:09:07;3.67;;;1.00;;
70997;SDS011;58663;52.040;4.634;2022-07-03T09:11:38;1.85;;;0.95;;
70997;SDS011;58663;52.040;4.634;2022-07-03T09:14:04;2.90;;;1.38;;
70997;SDS011;58663;52.040;4.634;2022-07-03T09:16:35;3.75;;;1.10;;
70997;SDS011;58663;52.040;4.634;2022-07-03T09:19:00;3.33;;;1.65;;
70997;SDS011;58663;52.040;4.634;2022-07-03T09:21:38;1.65;;;1.20;;
70997;SDS011;58663;52.040;4.634;2022-07-03T09:24:04;2.92;;;1.20;;
70997;SDS011;58663;52.040;4.634;2022-07-03T09:26:31;3.63;;;1.40;;
70997;SDS011;58663;52.040;4.634;2022-07-03T09:28:57;2.60;;;1.45;;
70997;SDS011;58663;52.040;4.634;2022-07-03T09:31:24;2.58;;;1.50;;
70997;SDS011;58663;52.040;4.634;2022-07-03T09:33:55;3.78;;;1.30;;
70997;SDS011;58663;52.040;4.634;2022-07-03T09:39:22;4.53;;;1.30;;
70997;SDS011;58663;52.040;4.634;2022-07-03T09:41:51;1.63;;;1.20;;
70997;SDS011;58663;52.040;4.634;2022-07-03T09:44:35;1.23;;;1.00;;
70997;SDS011;58663;52.040;4.634;2022-07-03T09:47:21;1.60;;;1.17;;
70997;SDS011;58663;52.040;4.634;2022-07-03T09:57:35;1.48;;;1.10;;
70997;SDS011;58663;52.040;4.634;2022-07-03T10:05:31;3.20;;;1.10;;
70997;SDS011;58663;52.040;4.634;2022-07-03T10:07:58;2.00;;;1.10;;
70997;SDS011;58663;52.040;4.634;2022-07-03T10:10:26;1.25;;;1.13;;
70997;SDS011;58663;52.040;4.634;2022-07-03T10:12:53;2.88;;;1.30;;
70997;SDS011;58663;52.040;4.634;2022-07-03T10:15:20;1.98;;;1.10;;
70997;SDS011;58663;52.040;4.634;2022-07-03T10:17:50;2.08;;;1.08;;
70997;SDS011;58663;52.040;4.634;2022-07-03T10:22:45;4.55;;;1.27;;
70997;SDS011;58663;52.040;4.634;2022-07-03T10:25:11;2.67;;;1.10;;
70997;SDS011;58663;52.040;4.634;2022-07-03T10:27:38;4.40;;;1.10;;
70997;SDS011;58663;52.040;4.634;2022-07-03T10:30:04;1.88;;;1.10;;
70997;SDS011;58663;52.040;4.634;2022-07-03T10:32:31;1.13;;;0.88;;
70997;SDS011;58663;52.040;4.634;2022-07-03T10:34:58;1.50;;;1.30;;
70997;SDS011;58663;52.040;4.634;2022-07-03T10:37:23;1.73;;;1.00;;
70997;SDS011;58663;52.040;4.634;2022-07-03T10:43:06;2.70;;;1.00;;
70997;SDS011;58663;52.040;4.634;2022-07-03T10:46:13;4.30;;;1.10;;
70997;SDS011;58663;52.040;4.634;2022-07-03T10:51:32;3.78;;;1.13;;
70997;SDS011;58663;52.040;4.634;2022-07-03T10:54:20;2.35;;;1.40;;
70997;SDS011;58663;52.040;4.634;2022-07-03T11:10:31;2.53;;;1.10;;
70997;SDS011;58663;52.040;4.634;2022-07-03T11:25:38;2.38;;;1.10;;
70997;SDS011;58663;52.040;4.634;2022-07-03T11:28:07;2.70;;;0.93;;
70997;SDS011;58663;52.040;4.634;2022-07-03T11:30:33;1.88;;;1.20;;
70997;SDS011;58663;52.040;4.634;2022-07-03T11:32:59;2.50;;;1.20;;
70997;SDS011;58663;52.040;4.634;2022-07-03T11:38:13;1.05;;;0.95;;
70997;SDS011;58663;52.040;4.634;2022-07-03T11:40:40;4.85;;;1.65;;
70997;SDS011;58663;52.040;4.634;2022-07-03T11:43:07;2.53;;;1.13;;
70997;SDS011;58663;52.040;4.634;2022-07-03T11:45:32;2.38;;;1.40;;
70997;SDS011;58663;52.040;4.634;2022-07-03T11:47:58;1.42;;;1.23;;
70997;SDS011;58663;52.040;4.634;2022-07-03T11:50:36;2.92;;;1.40;;
70997;SDS011;58663;52.040;4.634;2022-07-03T11:55:53;3.30;;;1.20;;
70997;SDS011;58663;52.040;4.634;2022-07-03T11:58:47;1.83;;;1.08;;
70997;SDS011;58663;52.040;4.634;2022-07-03T12:03:52;2.10;;;0.98;;
70997;SDS011;58663;52.040;4.634;2022-07-03T12:06:17;1.45;;;0.90;;
70997;SDS011;58663;52.040;4.634;2022-07-03T12:08:44;3.47;;;1.10;;
70997;SDS011;58663;52.040;4.634;2022-07-03T12:11:14;1.90;;;0.80;;
70997;SDS011;58663;52.040;4.634;2022-07-03T12:13:40;2.92;;;0.95;;
70997;SDS011;58663;52.040;4.634;2022-07-03T12:16:07;2.22;;;0.98;;
70997;SDS011;58663;52.040;4.634;2022-07-03T12:21:14;3.25;;;0.80;;
70997;SDS011;58663;52.040;4.634;2022-07-03T12:23:44;1.33;;;0.90;;
70997;SDS011;58663;52.040;4.634;2022-07-03T12:26:26;3.88;;;1.10;;
70997;SDS011;58663;52.040;4.634;2022-07-03T12:28:53;1.95;;;1.10;;
70997;SDS011;58663;52.040;4.634;2022-07-03T12:31:19;1.65;;;1.00;;
70997;SDS011;58663;52.040;4.634;2022-07-03T12:33:45;2.30;;;0.90;;
70997;SDS011;58663;52.040;4.634;2022-07-03T12:36:11;1.23;;;1.10;;
70997;SDS011;58663;52.040;4.634;2022-07-03T12:38:37;2.15;;;0.93;;
70997;SDS011;58663;52.040;4.634;2022-07-03T12:48:49;1.77;;;1.00;;
70997;SDS011;58663;52.040;4.634;2022-07-03T12:54:07;1.50;;;1.10;;
70997;SDS011;58663;52.040;4.634;2022-07-03T12:57:04;5.38;;;1.35;;
70997;SDS011;58663;52.040;4.634;2022-07-03T13:00:04;5.38;;;1.10;;
70997;SDS011;58663;52.040;4.634;2022-07-03T13:02:30;1.17;;;0.93;;
70997;SDS011;58663;52.040;4.634;2022-07-03T13:04:57;3.42;;;0.75;;
70997;SDS011;58663;52.040;4.634;2022-07-03T13:07:24;1.67;;;0.88;;
70997;SDS011;58663;52.040;4.634;2022-07-03T13:09:53;2.30;;;0.90;;
70997;SDS011;58663;52.040;4.634;2022-07-03T13:12:21;1.27;;;0.90;;
70997;SDS011;58663;52.040;4.634;2022-07-03T13:14:57;2.90;;;1.00;;
70997;SDS011;58663;52.040;4.634;2022-07-03T13:17:23;1.90;;;1.02;;
70997;SDS011;58663;52.040;4.634;2022-07-03T13:19:48;2.55;;;1.10;;
70997;SDS011;58663;52.040;4.634;2022-07-03T13:22:13;1.42;;;0.80;;
70997;SDS011;58663;52.040;4.634;2022-07-03T13:24:39;1.45;;;1.08;;
70997;SDS011;58663;52.040;4.634;2022-07-03T13:27:04;0.80;;;0.80;;
70997;SDS011;58663;52.040;4.634;2022-07-03T13:29:30;4.82;;;1.10;;
70997;SDS011;58663;52.040;4.634;2022-07-03T13:31:55;2.65;;;0.90;;
70997;SDS011;58663;52.040;4.634;2022-07-03T13:34:21;1.13;;;0.90;;
70997;SDS011;58663;52.040;4.634;2022-07-03T13:36:46;1.27;;;0.90;;
70997;SDS011;58663;52.040;4.634;2022-07-03T13:39:14;1.20;;;1.02;;
70997;SDS011;58663;52.040;4.634;2022-07-03T13:41:39;2.47;;;1.08;;
70997;SDS011;58663;52.040;4.634;2022-07-03T13:44:04;6.85;;;1.00;;
70997;SDS011;58663;52.040;4.634;2022-07-03T13:46:30;4.00;;;1.13;;
70997;SDS011;58663;52.040;4.634;2022-07-03T13:48:55;2.10;;;1.40;;
70997;SDS011;58663;52.040;4.634;2022-07-03T13:51:21;1.70;;;0.93;;
70997;SDS011;58663;52.040;4.634;2022-07-03T13:53:46;3.42;;;0.90;;
70997;SDS011;58663;52.040;4.634;2022-07-03T13:56:15;2.47;;;1.17;;
70997;SDS011;58663;52.040;4.634;2022-07-03T13:58:42;2.70;;;1.10;;
70997;SDS011;58663;52.040;4.634;2022-07-03T14:01:07;2.38;;;0.90;;
70997;SDS011;58663;52.040;4.634;2022-07-03T14:03:32;2.25;;;1.00;;
70997;SDS011;58663;52.040;4.634;2022-07-03T14:05:58;1.60;;;0.95;;
70997;SDS011;58663;52.040;4.634;2022-07-03T14:08:23;3.38;;;1.00;;
70997;SDS011;58663;52.040;4.634;2022-07-03T14:10:49;1.63;;;1.10;;
70997;SDS011;58663;52.040;4.634;2022-07-03T14:13:15;3.58;;;1.48;;
70997;SDS011;58663;52.040;4.634;2022-07-03T14:15:41;6.68;;;1.42;;
70997;SDS011;58663;52.040;4.634;2022-07-03T14:18:06;3.38;;;1.10;;
70997;SDS011;58663;52.040;4.634;2022-07-03T14:20:32;4.10;;;1.33;;
70997;SDS011;58663;52.040;4.634;2022-07-03T14:22:57;6.45;;;1.35;;
70997;SDS011;58663;52.040;4.634;2022-07-03T14:25:22;2.90;;;1.20;;
70997;SDS011;58663;52.040;4.634;2022-07-03T14:27:48;3.45;;;1.00;;
70997;SDS011;58663;52.040;4.634;2022-07-03T14:30:32;3.55;;;1.08;;
70997;SDS011;58663;52.040;4.634;2022-07-03T14:33:16;2.35;;;1.00;;
70997;SDS011;58663;52.040;4.634;2022-07-03T14:35:42;1.85;;;0.82;;
70997;SDS011;58663;52.040;4.634;2022-07-03T14:38:07;2.13;;;1.00;;
70997;SDS011;58663;52.040;4.634;2022-07-03T14:40:33;3.70;;;1.10;;
70997;SDS011;58663;52.040;4.634;2022-07-03T14:42:58;1.23;;;0.90;;
70997;SDS011;58663;52.040;4.634;2022-07-03T14:45:24;1.73;;;0.90;;
70997;SDS011;58663;52.040;4.634;2022-07-03T14:47:50;2.13;;;1.00;;
70997;SDS011;58663;52.040;4.634;2022-07-03T14:50:15;3.13;;;0.95;;
70997;SDS011;58663;52.040;4.634;2022-07-03T14:52:41;1.88;;;0.70;;
70997;SDS011;58663;52.040;4.634;2022-07-03T14:55:06;3.83;;;1.02;;
70997;SDS011;58663;52.040;4.634;2022-07-03T14:57:38;1.33;;;1.13;;
70997;SDS011;58663;52.040;4.634;2022-07-03T15:00:12;1.70;;;0.90;;
70997;SDS011;58663;52.040;4.634;2022-07-03T15:05:08;3.42;;;0.95;;
70997;SDS011;58663;52.040;4.634;2022-07-03T15:07:41;4.38;;;0.90;;
70997;SDS011;58663;52.040;4.634;2022-07-03T15:10:12;0.85;;;0.80;;
70997;SDS011;58663;52.040;4.634;2022-07-03T15:12:41;1.63;;;0.80;;
70997;SDS011;58663;52.040;4.634;2022-07-03T15:15:11;1.80;;;0.73;;
70997;SDS011;58663;52.040;4.634;2022-07-03T15:17:38;1.85;;;0.73;;
70997;SDS011;58663;52.040;4.634;2022-07-03T15:20:05;2.13;;;0.82;;
70997;SDS011;58663;52.040;4.634;2022-07-03T15:22:32;1.92;;;0.70;;
70997;SDS011;58663;52.040;4.634;2022-07-03T15:24:59;3.50;;;1.10;;
70997;SDS011;58663;52.040;4.634;2022-07-03T15:27:25;1.35;;;0.85;;
70997;SDS011;58663;52.040;4.634;2022-07-03T15:29:52;0.73;;;0.70;;
70997;SDS011;58663;52.040;4.634;2022-07-03T15:32:18;1.23;;;0.70;;
70997;SDS011;58663;52.040;4.634;2022-07-03T15:34:44;4.38;;;0.90;;
70997;SDS011;58663;52.040;4.634;2022-07-03T15:51:12;2.70;;;1.05;;
70997;SDS011;58663;52.040;4.634;2022-07-03T15:53:38;1.70;;;0.70;;
70997;SDS011;58663;52.040;4.634;2022-07-03T15:56:05;3.42;;;0.80;;
70997;SDS011;58663;52.040;4.634;2022-07-03T15:58:32;5.22;;;0.90;;
70997;SDS011;58663;52.040;4.634;2022-07-03T16:01:02;1.15;;;0.70;;
70997;SDS011;58663;52.040;4.634;2022-07-03T16:03:53;4.82;;;0.90;;
70997;SDS011;58663;52.040;4.634;2022-07-03T16:06:23;1.02;;;0.68;;
70997;SDS011;58663;52.040;4.634;2022-07-03T16:08:48;0.98;;;0.60;;
70997;SDS011;58663;52.040;4.634;2022-07-03T16:11:16;3.22;;;0.80;;
70997;SDS011;58663;52.040;4.634;2022-07-03T16:13:42;4.32;;;0.73;;
70997;SDS011;58663;52.040;4.634;2022-07-03T16:16:08;1.17;;;0.80;;
70997;SDS011;58663;52.040;4.634;2022-07-03T16:18:34;1.60;;;0.70;;
70997;SDS011;58663;52.040;4.634;2022-07-03T16:21:00;2.63;;;0.63;;
70997;SDS011;58663;52.040;4.634;2022-07-03T16:23:27;5.10;;;0.90;;
70997;SDS011;58663;52.040;4.634;2022-07-03T16:25:53;1.88;;;0.70;;
70997;SDS011;58663;52.040;4.634;2022-07-03T16:28:21;3.45;;;1.70;;
70997;SDS011;58663;52.040;4.634;2022-07-03T16:30:48;2.25;;;0.73;;
70997;SDS011;58663;52.040;4.634;2022-07-03T16:33:21;1.42;;;0.65;;
70997;SDS011;58663;52.040;4.634;2022-07-03T16:35:55;5.18;;;0.93;;
70997;SDS011;58663;52.040;4.634;2022-07-03T16:38:29;4.40;;;1.27;;
70997;SDS011;58663;52.040;4.634;2022-07-03T16:41:00;3.58;;;0.90;;
70997;SDS011;58663;52.040;4.634;2022-07-03T16:43:27;3.42;;;1.00;;
70997;SDS011;58663;52.040;4.634;2022-07-03T16:45:55;2.35;;;0.80;;
70997;SDS011;58663;52.040;4.634;2022-07-03T16:48:22;1.67;;;0.73;;
70997;SDS011;58663;52.040;4.634;2022-07-03T16:50:52;4.43;;;0.98;;
70997;SDS011;58663;52.040;4.634;2022-07-03T16:53:21;3.22;;;0.85;;
70997;SDS011;58663;52.040;4.634;2022-07-03T16:55:46;2.97;;;0.93;;
70997;SDS011;58663;52.040;4.634;2022-07-03T16:58:12;3.40;;;0.90;;
70997;SDS011;58663;52.040;4.634;2022-07-03T17:00:40;2.65;;;0.77;;
70997;SDS011;58663;52.040;4.634;2022-07-03T17:03:07;1.23;;;0.88;;
70997;SDS011;58663;52.040;4.634;2022-07-03T17:05:33;3.25;;;0.80;;